sensor_id;sensor_type;location;lat;lon;timestamp;P1;durP1;ratioP1;P2;durP2;ratioP2
21621;SDS011;10973;46.706;12.340;2023-07-08T00:00:49;7.10;;;5.70;;
21621;SDS011;10973;46.706;12.340;2023-07-08T00:03:18;6.53;;;5.70;;
21621;SDS011;10973;46.706;12.340;2023-07-08T00:05:47;6.27;;;5.67;;
21621;SDS011;10973;46.706;12.340;2023-07-08T00:08:22;7.40;;;6.03;;
21621;SDS011;10973;46.706;12.340;2023-07-08T00:10:49;6.47;;;5.60;;
21621;SDS011;10973;46.706;12.340;2023-07-08T00:13:17;5.90;;;5.30;;
21621;SDS011;10973;46.706;12.340;2023-07-08T00:15:46;6.73;;;6.03;;
21621;SDS011;10973;46.706;12.340;2023-07-08T00:18:14;7.00;;;6.33;;
21621;SDS011;10973;46.706;12.340;2023-07-08T00:20:47;7.00;;;5.60;;
21621;SDS011;10973;46.706;12.340;2023-07-08T00:23:17;8.23;;;5.63;;
21621;SDS011;10973;46.706;12.340;2023-07-08T00:25:46;6.10;;;5.50;;
21621;SDS011;10973;46.706;12.340;2023-07-08T00:28:16;6.87;;;5.50;;
21621;SDS011;10973;46.706;12.340;2023-07-08T00:30:46;6.20;;;5.60;;
21621;SDS011;10973;46.706;12.340;2023-07-08T00:33:15;5.93;;;5.40;;
21621;SDS011;10973;46.706;12.340;2023-07-08T00:35:43;6.03;;;5.43;;
21621;SDS011;10973;46.706;12.340;2023-07-08T00:38:17;5.97;;;5.37;;
21621;SDS011;10973;46.706;12.340;2023-07-08T00:40:50;6.53;;;5.90;;
21621;SDS011;10973;46.706;12.340;2023-07-08T00:55:01;7.33;;;5.43;;
21621;SDS011;10973;46.706;12.340;2023-07-08T00:57:37;5.90;;;5.30;;
21621;SDS011;10973;46.706;12.340;2023-07-08T01:00:11;6.23;;;5.63;;
21621;SDS011;10973;46.706;12.340;2023-07-08T01:02:49;7.33;;;6.00;;
21621;SDS011;10973;46.706;12.340;2023-07-08T01:05:23;5.27;;;4.77;;
21621;SDS011;10973;46.706;12.340;2023-07-08T01:07:56;7.90;;;5.97;;
21621;SDS011;10973;46.706;12.340;2023-07-08T01:10:51;6.10;;;5.50;;
21621;SDS011;10973;46.706;12.340;2023-07-08T01:13:22;8.43;;;5.50;;
21621;SDS011;10973;46.706;12.340;2023-07-08T01:15:50;6.83;;;5.23;;
21621;SDS011;10973;46.706;12.340;2023-07-08T01:18:18;5.43;;;4.93;;
21621;SDS011;10973;46.706;12.340;2023-07-08T01:20:48;6.60;;;5.43;;
21621;SDS011;10973;46.706;12.340;2023-07-08T01:23:16;6.03;;;5.30;;
21621;SDS011;10973;46.706;12.340;2023-07-08T01:25:45;5.60;;;5.10;;
21621;SDS011;10973;46.706;12.340;2023-07-08T01:28:13;8.60;;;5.60;;
21621;SDS011;10973;46.706;12.340;2023-07-08T01:30:42;5.83;;;5.33;;
21621;SDS011;10973;46.706;12.340;2023-07-08T01:33:20;6.97;;;5.40;;
21621;SDS011;10973;46.706;12.340;2023-07-08T01:35:48;6.60;;;5.27;;
21621;SDS011;10973;46.706;12.340;2023-07-08T01:38:22;5.53;;;4.97;;
21621;SDS011;10973;46.706;12.340;2023-07-08T01:40:54;7.33;;;5.60;;
21621;SDS011;10973;46.706;12.340;2023-07-08T01:43:24;6.30;;;5.67;;
21621;SDS011;10973;46.706;12.340;2023-07-08T01:45:52;6.47;;;5.87;;
21621;SDS011;10973;46.706;12.340;2023-07-08T01:48:22;6.23;;;5.63;;
21621;SDS011;10973;46.706;12.340;2023-07-08T01:50:56;6.37;;;5.77;;
21621;SDS011;10973;46.706;12.340;2023-07-08T01:53:31;5.87;;;5.27;;
21621;SDS011;10973;46.706;12.340;2023-07-08T01:56:08;9.00;;;6.37;;
21621;SDS011;10973;46.706;12.340;2023-07-08T01:58:38;6.67;;;5.77;;
21621;SDS011;10973;46.706;12.340;2023-07-08T02:01:07;7.63;;;5.67;;
21621;SDS011;10973;46.706;12.340;2023-07-08T02:03:34;5.90;;;5.30;;
21621;SDS011;10973;46.706;12.340;2023-07-08T02:06:03;6.93;;;5.00;;
21621;SDS011;10973;46.706;12.340;2023-07-08T02:08:35;6.93;;;6.23;;
21621;SDS011;10973;46.706;12.340;2023-07-08T02:11:03;6.77;;;6.07;;
21621;SDS011;10973;46.706;12.340;2023-07-08T02:13:30;6.50;;;5.80;;
21621;SDS011;10973;46.706;12.340;2023-07-08T02:15:57;8.87;;;6.53;;
21621;SDS011;10973;46.706;12.340;2023-07-08T02:18:25;7.77;;;6.33;;
21621;SDS011;10973;46.706;12.340;2023-07-08T02:20:53;7.50;;;5.93;;
21621;SDS011;10973;46.706;12.340;2023-07-08T02:23:20;8.23;;;6.40;;
21621;SDS011;10973;46.706;12.340;2023-07-08T02:25:54;7.23;;;6.13;;
21621;SDS011;10973;46.706;12.340;2023-07-08T02:28:23;8.43;;;6.40;;
21621;SDS011;10973;46.706;12.340;2023-07-08T02:30:50;7.43;;;6.37;;
21621;SDS011;10973;46.706;12.340;2023-07-08T02:33:17;7.83;;;5.70;;
21621;SDS011;10973;46.706;12.340;2023-07-08T02:35:45;6.73;;;6.00;;
21621;SDS011;10973;46.706;12.340;2023-07-08T02:38:12;7.47;;;5.87;;
21621;SDS011;10973;46.706;12.340;2023-07-08T02:40:39;8.23;;;6.03;;
21621;SDS011;10973;46.706;12.340;2023-07-08T02:43:07;9.63;;;5.77;;
21621;SDS011;10973;46.706;12.340;2023-07-08T02:45:35;6.33;;;5.73;;
21621;SDS011;10973;46.706;12.340;2023-07-08T02:48:03;6.37;;;5.70;;
21621;SDS011;10973;46.706;12.340;2023-07-08T02:50:31;6.77;;;5.43;;
21621;SDS011;10973;46.706;12.340;2023-07-08T02:52:58;6.17;;;5.37;;
21621;SDS011;10973;46.706;12.340;2023-07-08T02:55:25;9.73;;;6.33;;
21621;SDS011;10973;46.706;12.340;2023-07-08T02:57:52;6.07;;;5.47;;
21621;SDS011;10973;46.706;12.340;2023-07-08T03:00:20;7.33;;;5.57;;
21621;SDS011;10973;46.706;12.340;2023-07-08T03:02:47;7.97;;;5.97;;
21621;SDS011;10973;46.706;12.340;2023-07-08T03:05:14;5.80;;;5.17;;
21621;SDS011;10973;46.706;12.340;2023-07-08T03:07:42;6.00;;;5.40;;
21621;SDS011;10973;46.706;12.340;2023-07-08T03:10:09;6.33;;;5.73;;
21621;SDS011;10973;46.706;12.340;2023-07-08T03:12:37;6.27;;;5.40;;
21621;SDS011;10973;46.706;12.340;2023-07-08T03:15:04;5.77;;;5.20;;
21621;SDS011;10973;46.706;12.340;2023-07-08T03:17:32;7.27;;;5.50;;
21621;SDS011;10973;46.706;12.340;2023-07-08T03:20:00;6.30;;;5.70;;
21621;SDS011;10973;46.706;12.340;2023-07-08T03:22:29;6.17;;;5.57;;
21621;SDS011;10973;46.706;12.340;2023-07-08T03:24:56;6.37;;;5.77;;
21621;SDS011;10973;46.706;12.340;2023-07-08T03:27:23;6.97;;;5.77;;
21621;SDS011;10973;46.706;12.340;2023-07-08T03:29:51;6.87;;;5.77;;
21621;SDS011;10973;46.706;12.340;2023-07-08T03:32:18;6.23;;;5.70;;
21621;SDS011;10973;46.706;12.340;2023-07-08T03:34:45;6.00;;;5.40;;
21621;SDS011;10973;46.706;12.340;2023-07-08T03:37:13;6.47;;;5.17;;
21621;SDS011;10973;46.706;12.340;2023-07-08T03:39:40;6.60;;;5.30;;
21621;SDS011;10973;46.706;12.340;2023-07-08T03:42:08;6.37;;;5.40;;
21621;SDS011;10973;46.706;12.340;2023-07-08T03:44:35;6.50;;;5.43;;
21621;SDS011;10973;46.706;12.340;2023-07-08T03:47:03;7.30;;;5.40;;
21621;SDS011;10973;46.706;12.340;2023-07-08T03:49:30;6.57;;;5.73;;
21621;SDS011;10973;46.706;12.340;2023-07-08T03:51:58;5.93;;;5.33;;
21621;SDS011;10973;46.706;12.340;2023-07-08T03:54:27;5.97;;;5.47;;
21621;SDS011;10973;46.706;12.340;2023-07-08T03:56:55;6.00;;;5.50;;
21621;SDS011;10973;46.706;12.340;2023-07-08T03:59:23;5.70;;;5.20;;
21621;SDS011;10973;46.706;12.340;2023-07-08T04:01:50;6.00;;;5.30;;
21621;SDS011;10973;46.706;12.340;2023-07-08T04:04:17;5.83;;;5.33;;
21621;SDS011;10973;46.706;12.340;2023-07-08T04:06:45;6.77;;;5.17;;
21621;SDS011;10973;46.706;12.340;2023-07-08T04:09:12;6.50;;;5.80;;
21621;SDS011;10973;46.706;12.340;2023-07-08T04:11:40;6.43;;;5.83;;
21621;SDS011;10973;46.706;12.340;2023-07-08T04:14:08;6.70;;;6.00;;
21621;SDS011;10973;46.706;12.340;2023-07-08T04:16:45;7.00;;;5.80;;
21621;SDS011;10973;46.706;12.340;2023-07-08T04:19:19;5.93;;;5.27;;
21621;SDS011;10973;46.706;12.340;2023-07-08T04:21:47;5.60;;;5.10;;
21621;SDS011;10973;46.706;12.340;2023-07-08T04:24:15;6.73;;;5.90;;
21621;SDS011;10973;46.706;12.340;2023-07-08T04:26:44;6.23;;;5.63;;
21621;SDS011;10973;46.706;12.340;2023-07-08T04:29:19;7.70;;;6.03;;
21621;SDS011;10973;46.706;12.340;2023-07-08T04:31:49;8.00;;;6.00;;
21621;SDS011;10973;46.706;12.340;2023-07-08T04:34:16;6.70;;;5.43;;
21621;SDS011;10973;46.706;12.340;2023-07-08T04:36:44;6.30;;;5.70;;
21621;SDS011;10973;46.706;12.340;2023-07-08T04:39:13;6.87;;;5.57;;
21621;SDS011;10973;46.706;12.340;2023-07-08T04:41:40;7.10;;;5.77;;
21621;SDS011;10973;46.706;12.340;2023-07-08T04:44:09;8.47;;;6.57;;
21621;SDS011;10973;46.706;12.340;2023-07-08T04:49:16;10.47;;;6.10;;
21621;SDS011;10973;46.706;12.340;2023-07-08T04:51:44;6.63;;;6.03;;
21621;SDS011;10973;46.706;12.340;2023-07-08T04:54:12;7.30;;;5.67;;
21621;SDS011;10973;46.706;12.340;2023-07-08T04:56:47;6.97;;;6.20;;
21621;SDS011;10973;46.706;12.340;2023-07-08T04:59:16;7.07;;;6.07;;
21621;SDS011;10973;46.706;12.340;2023-07-08T05:01:48;7.97;;;6.47;;
21621;SDS011;10973;46.706;12.340;2023-07-08T05:04:17;8.03;;;6.33;;
21621;SDS011;10973;46.706;12.340;2023-07-08T05:06:47;9.90;;;7.23;;
21621;SDS011;10973;46.706;12.340;2023-07-08T05:09:16;12.77;;;6.93;;
21621;SDS011;10973;46.706;12.340;2023-07-08T05:11:43;9.40;;;7.13;;
21621;SDS011;10973;46.706;12.340;2023-07-08T05:14:11;10.73;;;7.07;;
21621;SDS011;10973;46.706;12.340;2023-07-08T05:16:40;10.87;;;8.10;;
21621;SDS011;10973;46.706;12.340;2023-07-08T05:19:08;9.20;;;8.13;;
21621;SDS011;10973;46.706;12.340;2023-07-08T05:21:36;10.50;;;8.37;;
21621;SDS011;10973;46.706;12.340;2023-07-08T05:24:03;8.50;;;7.63;;
21621;SDS011;10973;46.706;12.340;2023-07-08T05:26:32;9.90;;;7.50;;
21621;SDS011;10973;46.706;12.340;2023-07-08T05:29:00;10.53;;;8.33;;
21621;SDS011;10973;46.706;12.340;2023-07-08T05:31:28;9.00;;;7.00;;
21621;SDS011;10973;46.706;12.340;2023-07-08T05:33:58;11.03;;;8.73;;
21621;SDS011;10973;46.706;12.340;2023-07-08T05:36:25;8.97;;;8.07;;
21621;SDS011;10973;46.706;12.340;2023-07-08T05:38:53;9.40;;;7.67;;
21621;SDS011;10973;46.706;12.340;2023-07-08T05:41:20;9.10;;;7.03;;
21621;SDS011;10973;46.706;12.340;2023-07-08T05:43:48;10.17;;;6.87;;
21621;SDS011;10973;46.706;12.340;2023-07-08T05:46:15;8.50;;;6.70;;
21621;SDS011;10973;46.706;12.340;2023-07-08T05:48:43;7.27;;;6.57;;
21621;SDS011;10973;46.706;12.340;2023-07-08T05:51:10;8.73;;;7.50;;
21621;SDS011;10973;46.706;12.340;2023-07-08T05:53:38;7.93;;;7.13;;
21621;SDS011;10973;46.706;12.340;2023-07-08T05:56:05;8.50;;;7.70;;
21621;SDS011;10973;46.706;12.340;2023-07-08T05:58:32;7.47;;;6.63;;
21621;SDS011;10973;46.706;12.340;2023-07-08T06:01:00;7.87;;;6.83;;
21621;SDS011;10973;46.706;12.340;2023-07-08T06:03:28;8.23;;;6.97;;
21621;SDS011;10973;46.706;12.340;2023-07-08T06:05:55;7.63;;;6.93;;
21621;SDS011;10973;46.706;12.340;2023-07-08T06:08:23;7.47;;;6.77;;
21621;SDS011;10973;46.706;12.340;2023-07-08T06:10:51;8.63;;;7.13;;
21621;SDS011;10973;46.706;12.340;2023-07-08T06:13:18;7.37;;;6.67;;
21621;SDS011;10973;46.706;12.340;2023-07-08T06:15:45;7.53;;;6.80;;
21621;SDS011;10973;46.706;12.340;2023-07-08T06:18:13;7.57;;;6.67;;
21621;SDS011;10973;46.706;12.340;2023-07-08T06:20:40;10.20;;;6.97;;
21621;SDS011;10973;46.706;12.340;2023-07-08T06:23:08;8.47;;;6.67;;
21621;SDS011;10973;46.706;12.340;2023-07-08T06:25:35;10.93;;;7.20;;
21621;SDS011;10973;46.706;12.340;2023-07-08T06:28:02;8.27;;;6.70;;
21621;SDS011;10973;46.706;12.340;2023-07-08T06:30:30;8.03;;;7.00;;
21621;SDS011;10973;46.706;12.340;2023-07-08T06:32:57;7.63;;;6.80;;
21621;SDS011;10973;46.706;12.340;2023-07-08T06:35:27;8.27;;;7.47;;
21621;SDS011;10973;46.706;12.340;2023-07-08T06:37:54;10.80;;;7.37;;
21621;SDS011;10973;46.706;12.340;2023-07-08T06:40:22;7.80;;;7.10;;
21621;SDS011;10973;46.706;12.340;2023-07-08T06:42:50;9.93;;;6.93;;
21621;SDS011;10973;46.706;12.340;2023-07-08T06:45:17;7.80;;;6.97;;
21621;SDS011;10973;46.706;12.340;2023-07-08T06:47:45;6.90;;;6.27;;
21621;SDS011;10973;46.706;12.340;2023-07-08T06:50:12;7.13;;;6.43;;
21621;SDS011;10973;46.706;12.340;2023-07-08T06:52:40;8.57;;;6.77;;
21621;SDS011;10973;46.706;12.340;2023-07-08T06:55:08;7.27;;;6.57;;
21621;SDS011;10973;46.706;12.340;2023-07-08T06:57:38;7.63;;;6.83;;
21621;SDS011;10973;46.706;12.340;2023-07-08T07:00:09;6.73;;;6.13;;
21621;SDS011;10973;46.706;12.340;2023-07-08T07:02:38;7.17;;;6.43;;
21621;SDS011;10973;46.706;12.340;2023-07-08T07:05:06;6.73;;;6.13;;
21621;SDS011;10973;46.706;12.340;2023-07-08T07:07:34;6.17;;;5.57;;
21621;SDS011;10973;46.706;12.340;2023-07-08T07:10:02;8.47;;;6.90;;
21621;SDS011;10973;46.706;12.340;2023-07-08T07:12:30;7.33;;;6.13;;
21621;SDS011;10973;46.706;12.340;2023-07-08T07:14:57;9.33;;;6.87;;
21621;SDS011;10973;46.706;12.340;2023-07-08T07:17:25;7.13;;;6.20;;
21621;SDS011;10973;46.706;12.340;2023-07-08T07:19:54;7.00;;;6.20;;
21621;SDS011;10973;46.706;12.340;2023-07-08T07:22:21;6.83;;;5.67;;
21621;SDS011;10973;46.706;12.340;2023-07-08T07:24:49;7.07;;;6.33;;
21621;SDS011;10973;46.706;12.340;2023-07-08T07:27:17;6.33;;;5.73;;
21621;SDS011;10973;46.706;12.340;2023-07-08T07:29:45;7.13;;;6.17;;
21621;SDS011;10973;46.706;12.340;2023-07-08T07:32:16;7.20;;;6.53;;
21621;SDS011;10973;46.706;12.340;2023-07-08T07:34:49;7.90;;;6.50;;
21621;SDS011;10973;46.706;12.340;2023-07-08T07:37:18;7.43;;;6.83;;
21621;SDS011;10973;46.706;12.340;2023-07-08T07:39:48;8.23;;;7.43;;
21621;SDS011;10973;46.706;12.340;2023-07-08T07:42:16;7.33;;;6.53;;
21621;SDS011;10973;46.706;12.340;2023-07-08T07:44:45;6.90;;;6.20;;
21621;SDS011;10973;46.706;12.340;2023-07-08T07:47:13;7.27;;;6.30;;
21621;SDS011;10973;46.706;12.340;2023-07-08T07:49:41;8.93;;;6.57;;
21621;SDS011;10973;46.706;12.340;2023-07-08T07:52:08;6.93;;;5.90;;
21621;SDS011;10973;46.706;12.340;2023-07-08T07:54:37;6.53;;;5.93;;
21621;SDS011;10973;46.706;12.340;2023-07-08T07:57:07;6.83;;;6.00;;
21621;SDS011;10973;46.706;12.340;2023-07-08T07:59:34;6.53;;;5.93;;
21621;SDS011;10973;46.706;12.340;2023-07-08T08:02:02;6.27;;;5.50;;
21621;SDS011;10973;46.706;12.340;2023-07-08T08:04:30;6.40;;;5.83;;
21621;SDS011;10973;46.706;12.340;2023-07-08T08:06:57;6.93;;;5.70;;
21621;SDS011;10973;46.706;12.340;2023-07-08T08:09:24;12.17;;;6.00;;
21621;SDS011;10973;46.706;12.340;2023-07-08T08:11:52;8.27;;;5.43;;
21621;SDS011;10973;46.706;12.340;2023-07-08T08:14:20;9.27;;;6.03;;
21621;SDS011;10973;46.706;12.340;2023-07-08T08:16:47;6.83;;;5.00;;
21621;SDS011;10973;46.706;12.340;2023-07-08T08:19:15;6.20;;;5.17;;
21621;SDS011;10973;46.706;12.340;2023-07-08T08:21:42;5.57;;;5.07;;
21621;SDS011;10973;46.706;12.340;2023-07-08T08:24:09;6.13;;;4.93;;
21621;SDS011;10973;46.706;12.340;2023-07-08T08:26:36;5.80;;;4.77;;
21621;SDS011;10973;46.706;12.340;2023-07-08T08:29:04;7.40;;;4.87;;
21621;SDS011;10973;46.706;12.340;2023-07-08T08:31:31;12.03;;;5.60;;
21621;SDS011;10973;46.706;12.340;2023-07-08T08:33:59;9.57;;;4.83;;
21621;SDS011;10973;46.706;12.340;2023-07-08T08:36:26;6.20;;;5.30;;
21621;SDS011;10973;46.706;12.340;2023-07-08T08:38:54;5.53;;;5.03;;
21621;SDS011;10973;46.706;12.340;2023-07-08T08:41:31;6.57;;;4.90;;
21621;SDS011;10973;46.706;12.340;2023-07-08T08:44:02;7.13;;;5.10;;
21621;SDS011;10973;46.706;12.340;2023-07-08T08:46:41;6.50;;;5.80;;
21621;SDS011;10973;46.706;12.340;2023-07-08T08:51:56;5.83;;;5.27;;
21621;SDS011;10973;46.706;12.340;2023-07-08T08:54:25;7.83;;;5.13;;
21621;SDS011;10973;46.706;12.340;2023-07-08T08:57:03;8.10;;;5.10;;
21621;SDS011;10973;46.706;12.340;2023-07-08T09:00:00;5.60;;;4.73;;
21621;SDS011;10973;46.706;12.340;2023-07-08T09:05:17;6.72;;;5.03;;
21621;SDS011;10973;46.706;12.340;2023-07-08T09:10:38;6.10;;;5.33;;
21621;SDS011;10973;46.706;12.340;2023-07-08T09:13:31;5.93;;;5.32;;
21621;SDS011;10973;46.706;12.340;2023-07-08T09:19:11;9.23;;;5.03;;
21621;SDS011;10973;46.706;12.340;2023-07-08T09:27:16;7.37;;;4.90;;
21621;SDS011;10973;46.706;12.340;2023-07-08T09:29:43;8.10;;;4.93;;
21621;SDS011;10973;46.706;12.340;2023-07-08T09:34:52;9.35;;;5.45;;
21621;SDS011;10973;46.706;12.340;2023-07-08T09:37:31;6.25;;;5.07;;
21621;SDS011;10973;46.706;12.340;2023-07-08T09:40:14;5.40;;;4.90;;
21621;SDS011;10973;46.706;12.340;2023-07-08T09:42:42;5.47;;;4.95;;
21621;SDS011;10973;46.706;12.340;2023-07-08T09:45:14;9.13;;;5.20;;
21621;SDS011;10973;46.706;12.340;2023-07-08T09:47:46;5.50;;;5.00;;
21621;SDS011;10973;46.706;12.340;2023-07-08T09:50:22;5.80;;;5.22;;
21621;SDS011;10973;46.706;12.340;2023-07-08T09:52:55;5.90;;;5.22;;
21621;SDS011;10973;46.706;12.340;2023-07-08T09:55:25;5.88;;;5.28;;
21621;SDS011;10973;46.706;12.340;2023-07-08T09:57:52;6.10;;;5.35;;
21621;SDS011;10973;46.706;12.340;2023-07-08T10:00:40;6.60;;;5.35;;
21621;SDS011;10973;46.706;12.340;2023-07-08T10:03:15;10.25;;;5.47;;
21621;SDS011;10973;46.706;12.340;2023-07-08T10:05:49;6.18;;;5.05;;
21621;SDS011;10973;46.706;12.340;2023-07-08T10:08:22;6.03;;;4.85;;
21621;SDS011;10973;46.706;12.340;2023-07-08T10:11:01;6.03;;;5.45;;
21621;SDS011;10973;46.706;12.340;2023-07-08T10:16:27;6.70;;;5.35;;
21621;SDS011;10973;46.706;12.340;2023-07-08T10:18:59;6.57;;;4.68;;
21621;SDS011;10973;46.706;12.340;2023-07-08T10:21:34;5.40;;;4.90;;
21621;SDS011;10973;46.706;12.340;2023-07-08T10:30:22;5.90;;;4.80;;
21621;SDS011;10973;46.706;12.340;2023-07-08T10:41:48;6.35;;;5.10;;
21621;SDS011;10973;46.706;12.340;2023-07-08T10:45:11;5.47;;;4.97;;
21621;SDS011;10973;46.706;12.340;2023-07-08T11:06:11;5.18;;;4.68;;
21621;SDS011;10973;46.706;12.340;2023-07-08T11:08:59;5.75;;;5.25;;
21621;SDS011;10973;46.706;12.340;2023-07-08T11:11:34;4.97;;;4.57;;
21621;SDS011;10973;46.706;12.340;2023-07-08T11:14:30;4.70;;;4.30;;
21621;SDS011;10973;46.706;12.340;2023-07-08T11:17:15;5.05;;;4.45;;
21621;SDS011;10973;46.706;12.340;2023-07-08T11:22:55;5.47;;;4.80;;
21621;SDS011;10973;46.706;12.340;2023-07-08T11:26:14;4.93;;;4.40;;
21621;SDS011;10973;46.706;12.340;2023-07-08T11:29:01;5.80;;;4.40;;
21621;SDS011;10973;46.706;12.340;2023-07-08T11:31:47;7.05;;;4.90;;
21621;SDS011;10973;46.706;12.340;2023-07-08T11:34:20;6.75;;;5.10;;
21621;SDS011;10973;46.706;12.340;2023-07-08T11:36:50;6.57;;;5.13;;
21621;SDS011;10973;46.706;12.340;2023-07-08T11:39:26;5.07;;;4.68;;
21621;SDS011;10973;46.706;12.340;2023-07-08T11:45:26;4.47;;;4.07;;
21621;SDS011;10973;46.706;12.340;2023-07-08T11:48:13;6.38;;;4.75;;
21621;SDS011;10973;46.706;12.340;2023-07-08T11:50:48;6.43;;;5.70;;
21621;SDS011;10973;46.706;12.340;2023-07-08T11:55:58;5.28;;;4.80;;
21621;SDS011;10973;46.706;12.340;2023-07-08T12:03:48;5.95;;;5.18;;
21621;SDS011;10973;46.706;12.340;2023-07-08T12:08:55;6.32;;;4.80;;
21621;SDS011;10973;46.706;12.340;2023-07-08T12:11:40;6.78;;;4.82;;
21621;SDS011;10973;46.706;12.340;2023-07-08T12:14:11;6.05;;;5.32;;
21621;SDS011;10973;46.706;12.340;2023-07-08T12:16:39;9.32;;;5.20;;
21621;SDS011;10973;46.706;12.340;2023-07-08T12:19:07;7.30;;;5.47;;
21621;SDS011;10973;46.706;12.340;2023-07-08T12:21:43;7.13;;;5.07;;
21621;SDS011;10973;46.706;12.340;2023-07-08T12:24:11;6.22;;;5.00;;
21621;SDS011;10973;46.706;12.340;2023-07-08T12:26:41;7.13;;;5.10;;
21621;SDS011;10973;46.706;12.340;2023-07-08T12:29:12;5.70;;;5.00;;
21621;SDS011;10973;46.706;12.340;2023-07-08T12:31:40;6.30;;;5.03;;
21621;SDS011;10973;46.706;12.340;2023-07-08T12:34:13;5.18;;;4.43;;
21621;SDS011;10973;46.706;12.340;2023-07-08T12:36:43;5.03;;;4.60;;
21621;SDS011;10973;46.706;12.340;2023-07-08T12:39:14;6.05;;;4.50;;
21621;SDS011;10973;46.706;12.340;2023-07-08T12:41:44;4.68;;;4.28;;
21621;SDS011;10973;46.706;12.340;2023-07-08T12:44:17;6.03;;;4.50;;
21621;SDS011;10973;46.706;12.340;2023-07-08T12:46:48;5.18;;;4.68;;
21621;SDS011;10973;46.706;12.340;2023-07-08T12:49:20;6.68;;;4.82;;
21621;SDS011;10973;46.706;12.340;2023-07-08T12:51:48;6.78;;;4.82;;
21621;SDS011;10973;46.706;12.340;2023-07-08T12:54:15;5.07;;;4.68;;
21621;SDS011;10973;46.706;12.340;2023-07-08T12:56:43;6.75;;;4.70;;
21621;SDS011;10973;46.706;12.340;2023-07-08T12:59:19;5.60;;;3.65;;
21621;SDS011;10973;46.706;12.340;2023-07-08T13:01:50;4.50;;;4.10;;
21621;SDS011;10973;46.706;12.340;2023-07-08T13:04:20;5.18;;;3.92;;
21621;SDS011;10973;46.706;12.340;2023-07-08T13:06:47;4.40;;;4.00;;
21621;SDS011;10973;46.706;12.340;2023-07-08T13:09:21;4.38;;;3.97;;
21621;SDS011;10973;46.706;12.340;2023-07-08T13:12:13;4.50;;;4.10;;
21621;SDS011;10973;46.706;12.340;2023-07-08T13:14:47;4.38;;;3.97;;
21621;SDS011;10973;46.706;12.340;2023-07-08T13:17:23;5.28;;;4.35;;
21621;SDS011;10973;46.706;12.340;2023-07-08T13:19:55;5.22;;;3.88;;
21621;SDS011;10973;46.706;12.340;2023-07-08T13:22:25;4.03;;;3.63;;
21621;SDS011;10973;46.706;12.340;2023-07-08T13:25:00;6.32;;;4.20;;
21621;SDS011;10973;46.706;12.340;2023-07-08T13:27:29;4.70;;;4.25;;
21621;SDS011;10973;46.706;12.340;2023-07-08T13:30:05;4.03;;;3.45;;
21621;SDS011;10973;46.706;12.340;2023-07-08T13:32:54;5.45;;;3.38;;
21621;SDS011;10973;46.706;12.340;2023-07-08T13:38:17;3.95;;;3.40;;
21621;SDS011;10973;46.706;12.340;2023-07-08T13:40:52;6.60;;;3.75;;
21621;SDS011;10973;46.706;12.340;2023-07-08T13:43:30;3.70;;;3.40;;
21621;SDS011;10973;46.706;12.340;2023-07-08T13:46:00;4.13;;;3.72;;
21621;SDS011;10973;46.706;12.340;2023-07-08T13:48:39;5.53;;;3.97;;
21621;SDS011;10973;46.706;12.340;2023-07-08T13:51:11;4.13;;;3.72;;
21621;SDS011;10973;46.706;12.340;2023-07-08T13:53:46;5.68;;;3.22;;
21621;SDS011;10973;46.706;12.340;2023-07-08T13:59:07;4.43;;;3.13;;
21621;SDS011;10973;46.706;12.340;2023-07-08T14:01:42;5.78;;;3.65;;
21621;SDS011;10973;46.706;12.340;2023-07-08T14:04:16;3.10;;;2.80;;
21621;SDS011;10973;46.706;12.340;2023-07-08T14:06:47;4.25;;;3.00;;
21621;SDS011;10973;46.706;12.340;2023-07-08T14:09:16;3.20;;;2.90;;
21621;SDS011;10973;46.706;12.340;2023-07-08T14:11:47;3.55;;;3.25;;
21621;SDS011;10973;46.706;12.340;2023-07-08T14:14:17;3.35;;;3.05;;
21621;SDS011;10973;46.706;12.340;2023-07-08T14:16:46;3.83;;;3.53;;
21621;SDS011;10973;46.706;12.340;2023-07-08T14:19:25;3.70;;;3.40;;
21621;SDS011;10973;46.706;12.340;2023-07-08T14:21:58;5.32;;;3.75;;
21621;SDS011;10973;46.706;12.340;2023-07-08T14:24:46;7.05;;;4.28;;
21621;SDS011;10973;46.706;12.340;2023-07-08T14:27:13;4.50;;;4.15;;
21621;SDS011;10973;46.706;12.340;2023-07-08T14:29:41;4.13;;;3.72;;
21621;SDS011;10973;46.706;12.340;2023-07-08T14:32:14;5.47;;;4.20;;
21621;SDS011;10973;46.706;12.340;2023-07-08T14:34:50;6.25;;;4.78;;
21621;SDS011;10973;46.706;12.340;2023-07-08T14:37:22;6.28;;;4.78;;
21621;SDS011;10973;46.706;12.340;2023-07-08T14:39:54;5.43;;;4.93;;
21621;SDS011;10973;46.706;12.340;2023-07-08T14:42:29;5.88;;;5.32;;
21621;SDS011;10973;46.706;12.340;2023-07-08T14:44:57;6.53;;;5.55;;
21621;SDS011;10973;46.706;12.340;2023-07-08T14:47:25;5.95;;;5.38;;
21621;SDS011;10973;46.706;12.340;2023-07-08T14:49:52;6.18;;;5.57;;
21621;SDS011;10973;46.706;12.340;2023-07-08T14:52:20;6.50;;;5.90;;
21621;SDS011;10973;46.706;12.340;2023-07-08T14:54:47;4.20;;;3.78;;
21621;SDS011;10973;46.706;12.340;2023-07-08T14:57:15;3.67;;;3.40;;
21621;SDS011;10973;46.706;12.340;2023-07-08T14:59:43;3.50;;;3.20;;
21621;SDS011;10973;46.706;12.340;2023-07-08T15:02:18;3.60;;;3.30;;
21621;SDS011;10973;46.706;12.340;2023-07-08T15:04:48;3.90;;;3.60;;
21621;SDS011;10973;46.706;12.340;2023-07-08T15:07:15;4.50;;;3.70;;
21621;SDS011;10973;46.706;12.340;2023-07-08T15:09:43;4.68;;;3.97;;
21621;SDS011;10973;46.706;12.340;2023-07-08T15:12:11;4.30;;;3.90;;
21621;SDS011;10973;46.706;12.340;2023-07-08T15:14:39;3.72;;;3.40;;
21621;SDS011;10973;46.706;12.340;2023-07-08T15:17:11;4.35;;;3.38;;
21621;SDS011;10973;46.706;12.340;2023-07-08T15:19:43;7.00;;;4.30;;
21621;SDS011;10973;46.706;12.340;2023-07-08T15:22:11;4.43;;;3.97;;
21621;SDS011;10973;46.706;12.340;2023-07-08T15:24:39;5.32;;;4.07;;
21621;SDS011;10973;46.706;12.340;2023-07-08T15:27:08;3.95;;;3.58;;
21621;SDS011;10973;46.706;12.340;2023-07-08T15:29:39;3.72;;;3.42;;
21621;SDS011;10973;46.706;12.340;2023-07-08T15:32:13;5.05;;;4.00;;
21621;SDS011;10973;46.706;12.340;2023-07-08T15:35:00;3.90;;;3.47;;
21621;SDS011;10973;46.706;12.340;2023-07-08T15:37:28;4.60;;;3.90;;
21621;SDS011;10973;46.706;12.340;2023-07-08T15:39:55;3.67;;;3.38;;
21621;SDS011;10973;46.706;12.340;2023-07-08T15:42:22;3.70;;;3.28;;
21621;SDS011;10973;46.706;12.340;2023-07-08T15:44:50;3.92;;;3.50;;
21621;SDS011;10973;46.706;12.340;2023-07-08T15:47:17;3.75;;;3.45;;
21621;SDS011;10973;46.706;12.340;2023-07-08T15:49:45;5.25;;;3.85;;
21621;SDS011;10973;46.706;12.340;2023-07-08T15:52:13;3.78;;;3.40;;
21621;SDS011;10973;46.706;12.340;2023-07-08T15:54:40;7.38;;;4.32;;
21621;SDS011;10973;46.706;12.340;2023-07-08T15:57:08;6.60;;;3.70;;
21621;SDS011;10973;46.706;12.340;2023-07-08T15:59:41;10.77;;;4.20;;
21621;SDS011;10973;46.706;12.340;2023-07-08T16:02:16;4.00;;;3.70;;
21621;SDS011;10973;46.706;12.340;2023-07-08T16:04:53;5.32;;;3.35;;
21621;SDS011;10973;46.706;12.340;2023-07-08T16:07:21;3.80;;;3.50;;
21621;SDS011;10973;46.706;12.340;2023-07-08T16:09:48;4.28;;;3.35;;
21621;SDS011;10973;46.706;12.340;2023-07-08T16:12:17;3.72;;;3.42;;
21621;SDS011;10973;46.706;12.340;2023-07-08T16:14:48;4.03;;;3.67;;
21621;SDS011;10973;46.706;12.340;2023-07-08T16:17:16;5.28;;;3.88;;
21621;SDS011;10973;46.706;12.340;2023-07-08T16:19:44;3.70;;;3.40;;
21621;SDS011;10973;46.706;12.340;2023-07-08T16:22:12;3.92;;;3.42;;
21621;SDS011;10973;46.706;12.340;2023-07-08T16:24:39;4.13;;;3.50;;
21621;SDS011;10973;46.706;12.340;2023-07-08T16:27:07;5.65;;;3.67;;